createdAt,value
2023-01-23T02:35:30.129Z,369.00
2023-01-23T02:36:30.079Z,370.00
2023-01-23T02:37:30.077Z,369.00
2023-01-23T02:38:29.997Z,369.00
2023-01-23T02:39:29.968Z,367.00
2023-01-23T02:40:29.929Z,366.00
2023-01-23T02:41:29.908Z,365.00
2023-01-23T02:42:29.849Z,363.00
2023-01-23T02:43:29.793Z,364.00
2023-01-23T02:44:29.786Z,364.00
2023-01-23T02:45:29.733Z,362.00
2023-01-23T02:46:29.675Z,364.00
2023-01-23T02:47:29.634Z,364.00
2023-01-23T02:48:29.667Z,365.00
2023-01-23T02:49:29.544Z,362.00
2023-01-23T02:50:29.508Z,363.00
2023-01-23T02:52:29.450Z,362.00
2023-01-23T02:53:29.444Z,364.00
2023-01-23T02:54:29.362Z,363.00
2023-01-23T02:55:29.316Z,366.00
2023-01-23T02:56:29.332Z,364.00
2023-01-23T02:57:29.288Z,363.00
2023-01-23T02:58:29.206Z,362.00
2023-01-23T02:59:29.164Z,361.00
2023-01-23T03:00:29.131Z,360.00
2023-01-23T03:01:29.090Z,360.00
2023-01-23T03:02:29.096Z,358.00
2023-01-23T03:03:29.054Z,359.00
2023-01-23T03:04:29.077Z,358.00
2023-01-23T03:05:28.960Z,357.00
2023-01-23T03:06:28.927Z,356.00
2023-01-23T06:53:21.517Z,690.00
2023-01-23T06:56:21.368Z,757.00
2023-01-23T07:00:21.561Z,781.00
2023-01-23T07:01:22.253Z,784.00
2023-01-23T07:02:21.183Z,798.00
2023-01-23T07:03:21.200Z,806.00
2023-01-23T07:04:21.225Z,848.00
2023-01-23T07:05:21.109Z,872.00
2023-01-23T07:06:21.096Z,851.00
2023-01-23T07:07:21.062Z,858.00
2023-01-23T07:08:21.012Z,857.00
2023-01-23T07:09:20.981Z,860.00
2023-01-23T07:10:21.385Z,851.00
2023-01-23T07:11:20.920Z,859.00
2023-01-23T07:12:20.888Z,867.00
2023-01-23T07:13:20.836Z,875.00
2023-01-23T07:14:20.810Z,888.00
2023-01-23T07:15:20.831Z,895.00
2023-01-23T07:16:20.758Z,895.00
2023-01-23T07:17:20.708Z,897.00
2023-01-23T07:18:20.677Z,905.00
2023-01-23T07:19:20.634Z,903.00
2023-01-23T07:20:20.965Z,899.00
2023-01-23T07:21:20.585Z,899.00
2023-01-23T07:22:20.540Z,899.00
2023-01-23T07:23:20.495Z,903.00
2023-01-23T07:24:20.459Z,909.00
2023-01-23T07:25:20.422Z,905.00
2023-01-23T07:26:20.397Z,912.00
2023-01-23T07:27:20.356Z,907.00
2023-01-23T07:28:20.307Z,901.00
2023-01-23T07:29:20.278Z,920.00
2023-01-23T07:30:20.529Z,937.00
2023-01-23T07:31:20.327Z,930.00
2023-01-23T07:32:20.183Z,932.00
2023-01-23T07:33:20.157Z,926.00
2023-01-23T07:34:20.116Z,915.00
2023-01-23T07:35:20.054Z,912.00
2023-01-23T07:36:20.115Z,908.00
2023-01-23T07:37:20.063Z,913.00
2023-01-23T07:38:19.945Z,914.00
2023-01-23T07:39:19.930Z,914.00
2023-01-23T07:40:20.211Z,917.00
2023-01-23T07:41:19.847Z,922.00
2023-01-23T07:42:19.821Z,926.00
2023-01-23T07:43:19.783Z,918.00
2023-01-23T07:44:19.748Z,925.00
2023-01-23T07:45:19.714Z,934.00
2023-01-23T07:46:19.788Z,937.00
2023-01-23T07:47:19.720Z,943.00
2023-01-23T07:48:19.622Z,966.00
2023-01-23T07:49:19.563Z,983.00
2023-01-23T07:50:19.766Z,980.00
2023-01-23T07:51:19.610Z,983.00
2023-01-23T07:52:19.560Z,963.00
2023-01-23T07:53:19.530Z,971.00
2023-01-23T07:54:19.398Z,959.00
2023-01-23T07:55:19.356Z,716.00
2023-01-23T07:56:19.321Z,658.00
2023-01-23T07:57:19.297Z,675.00
2023-01-23T07:58:19.285Z,631.00
2023-01-23T07:59:19.265Z,584.00
2023-01-23T08:00:19.623Z,546.00
2023-01-23T08:01:19.336Z,714.00
2023-01-23T08:02:19.180Z,729.00
2023-01-23T08:03:19.171Z,738.00
2023-01-23T08:04:19.141Z,732.00
2023-01-23T08:05:19.140Z,729.00
2023-01-23T08:06:19.109Z,732.00
2023-01-23T08:07:19.070Z,737.00
2023-01-23T08:08:19.132Z,742.00
2023-01-23T08:09:19.015Z,753.00
2023-01-23T08:10:19.381Z,769.00
2023-01-23T08:11:18.950Z,778.00
2023-01-23T08:12:18.919Z,784.00
2023-01-23T08:15:19.755Z,811.00
2023-01-23T10:27:14.810Z,827.00
2023-01-23T10:28:14.776Z,828.00
2023-01-23T10:29:14.752Z,827.00
2023-01-23T10:30:14.706Z,830.00
2023-01-23T10:31:14.826Z,833.00
2023-01-23T10:32:14.768Z,836.00
2023-01-23T10:33:14.619Z,839.00
2023-01-23T10:34:14.593Z,841.00
2023-01-23T10:35:14.562Z,851.00
2023-01-23T10:36:17.625Z,895.00
2023-01-23T10:37:15.485Z,896.00
2023-01-23T10:38:14.460Z,934.00
2023-01-23T10:39:14.420Z,943.00
2023-01-23T10:40:14.395Z,941.00
2023-01-23T10:41:14.355Z,949.00
2023-01-23T10:42:14.331Z,962.00
2023-01-23T10:43:14.299Z,978.00
2023-01-23T10:44:14.364Z,1007.00
2023-01-23T10:45:14.278Z,1034.00
2023-01-23T10:46:14.345Z,1074.00
2023-01-23T10:47:14.287Z,541.00
2023-01-23T10:48:16.274Z,462.00
2023-01-23T10:49:14.124Z,418.00
2023-01-23T10:50:14.181Z,359.00
2023-01-23T10:51:14.163Z,434.00
2023-01-23T10:52:14.141Z,544.00
2023-01-23T10:53:14.130Z,533.00
2023-01-23T10:54:29.666Z,530.00
2023-01-23T10:57:14.095Z,548.00
2023-01-23T10:58:14.000Z,560.00
2023-01-23T10:59:13.974Z,595.00
2023-01-23T11:00:13.983Z,648.00
2023-01-23T11:08:56.149Z,750.00
2023-01-23T11:09:47.838Z,760.00
2023-01-23T11:10:46.736Z,757.00
2023-01-23T11:11:46.708Z,763.00
2023-01-23T11:12:46.692Z,779.00
2023-01-23T11:13:46.679Z,787.00
2023-01-23T11:15:09.728Z,798.00
2023-01-23T11:16:46.602Z,811.00
2023-01-23T11:17:46.564Z,813.00
2023-01-23T11:18:46.591Z,818.00
2023-01-23T11:19:46.519Z,819.00
2023-01-23T11:20:46.449Z,816.00
2023-01-23T11:21:46.425Z,820.00
2023-01-23T11:22:46.389Z,821.00
2023-01-23T11:23:46.362Z,831.00
2023-01-23T11:24:46.352Z,840.00
2023-01-23T11:25:46.340Z,846.00
2023-01-23T11:26:46.256Z,845.00
2023-01-23T11:27:46.220Z,847.00
2023-01-23T11:28:46.206Z,844.00
2023-01-23T11:29:46.155Z,846.00
2023-01-23T11:30:46.214Z,853.00
2023-01-23T11:31:46.234Z,859.00
2023-01-23T11:32:46.064Z,859.00
2023-01-23T11:33:46.035Z,859.00
2023-01-23T11:34:46.100Z,863.00
2023-01-23T11:35:45.973Z,876.00
2023-01-23T11:36:45.961Z,632.00
2023-01-23T11:37:45.948Z,816.00
2023-01-23T11:38:52.459Z,729.00
2023-01-23T11:39:46.863Z,795.00
2023-01-23T11:40:45.836Z,806.00
2023-01-23T11:41:45.877Z,819.00
2023-01-23T11:42:45.777Z,848.00
2023-01-23T11:43:46.322Z,861.00
2023-01-23T11:44:46.624Z,872.00
2023-01-23T11:45:45.748Z,881.00
2023-01-23T11:46:45.715Z,898.00
2023-01-23T11:47:45.633Z,940.00
2023-01-23T11:48:45.605Z,958.00
2023-01-23T11:49:45.585Z,956.00
2023-01-23T11:50:54.958Z,957.00
2023-01-23T11:51:46.529Z,956.00
2023-01-23T11:52:45.529Z,957.00
2023-01-23T11:53:45.518Z,967.00
2023-01-23T11:54:45.448Z,971.00
2023-01-23T11:55:45.425Z,971.00
2023-01-23T11:56:45.387Z,971.00
2023-01-23T11:57:45.363Z,969.00
2023-01-23T11:59:46.318Z,964.00
2023-01-23T12:00:45.292Z,956.00
2023-01-23T12:01:49.399Z,954.00
2023-01-23T12:02:45.244Z,948.00
2023-01-23T12:03:45.174Z,952.00
2023-01-23T12:04:45.140Z,954.00
2023-01-23T12:05:45.104Z,945.00
2023-01-23T12:06:45.152Z,940.00
2023-01-23T12:07:45.031Z,933.00
2023-01-23T12:08:44.996Z,926.00
2023-01-23T12:09:44.960Z,926.00
2023-01-23T12:10:44.933Z,932.00
2023-01-23T12:11:45.778Z,936.00
2023-01-23T12:12:44.862Z,938.00
2023-01-23T12:13:44.852Z,945.00
2023-01-23T12:14:44.830Z,942.00
2023-01-23T12:15:44.844Z,959.00
2023-01-23T12:16:44.731Z,969.00
2023-01-23T12:17:44.710Z,972.00
2023-01-23T12:18:44.669Z,974.00
2023-01-23T12:19:44.643Z,977.00
2023-01-23T12:20:45.705Z,983.00
2023-01-23T12:21:44.575Z,986.00
2023-01-23T12:22:44.537Z,988.00
2023-01-23T12:23:44.510Z,990.00
2023-01-23T12:24:44.471Z,1013.00
2023-01-23T12:25:44.447Z,1039.00
2023-01-23T12:26:44.383Z,1045.00
2023-01-23T12:27:44.389Z,1062.00
2023-01-23T12:28:44.310Z,1063.00
2023-01-23T12:29:44.340Z,1069.00
2023-01-23T12:30:44.243Z,1054.00
2023-01-23T12:31:44.284Z,1043.00
2023-01-23T12:32:44.232Z,1034.00
2023-01-23T12:33:44.129Z,1025.00
2023-01-23T12:34:44.104Z,990.00
2023-01-23T12:35:44.053Z,983.00
2023-01-23T12:36:54.406Z,966.00
2023-01-23T12:37:45.012Z,933.00
2023-01-23T12:38:44.313Z,921.00
2023-01-23T12:39:43.930Z,913.00
2023-01-23T12:40:43.901Z,908.00
2023-01-23T12:41:43.923Z,900.00
2023-01-23T12:42:43.817Z,887.00
2023-01-23T12:43:43.786Z,874.00
2023-01-23T12:44:43.765Z,861.00
2023-01-23T12:45:43.734Z,846.00
2023-01-23T12:46:43.687Z,834.00
2023-01-23T12:47:43.631Z,821.00
2023-01-23T12:48:43.594Z,810.00
2023-01-23T12:49:43.559Z,806.00
2023-01-23T12:50:43.544Z,801.00
2023-01-23T12:51:43.502Z,789.00
2023-01-23T12:52:43.466Z,779.00
2023-01-23T12:53:43.429Z,770.00
2023-01-23T12:54:43.470Z,765.00
2023-01-23T12:55:43.355Z,737.00
2023-01-23T12:56:43.334Z,728.00
2023-01-23T12:57:59.436Z,723.00
2023-01-23T12:59:43.204Z,715.00
2023-01-23T13:00:43.248Z,709.00
2023-01-23T13:01:43.172Z,703.00
2023-01-23T13:02:43.095Z,697.00
2023-01-23T13:03:46.284Z,690.00
2023-01-23T13:04:43.015Z,687.00
2023-01-23T13:05:43.028Z,682.00
2023-01-23T13:06:42.948Z,680.00
2023-01-23T13:07:42.918Z,680.00
2023-01-23T13:08:57.968Z,673.00
2023-01-23T13:10:42.906Z,668.00
2023-01-23T13:11:42.798Z,666.00
2023-01-23T13:12:42.746Z,662.00
2023-01-23T13:13:42.706Z,660.00
2023-01-23T13:15:00.595Z,661.00
2023-01-23T13:16:42.804Z,659.00
2023-01-23T13:17:42.591Z,658.00
2023-01-23T13:18:42.534Z,656.00
2023-01-23T13:19:42.494Z,657.00
2023-01-23T13:20:42.477Z,659.00
2023-01-23T13:21:42.438Z,659.00
2023-01-23T13:22:42.385Z,656.00
2023-01-23T13:32:42.052Z,661.00
2023-01-23T14:18:40.382Z,539.00
2023-01-23T14:20:40.326Z,510.00
2023-01-23T14:21:41.628Z,515.00
2023-01-23T14:22:40.292Z,482.00
2023-01-23T14:23:40.259Z,442.00
2023-01-23T14:24:40.255Z,456.00
2023-01-23T14:25:40.223Z,425.00
2023-01-23T14:26:40.201Z,502.00
2023-01-23T14:27:52.802Z,536.00
2023-01-23T14:29:40.158Z,503.00
2023-01-23T14:30:40.140Z,434.00
2023-01-23T14:31:40.204Z,480.00
2023-01-23T14:32:40.122Z,476.00
2023-01-23T14:33:40.101Z,466.00
2023-01-23T14:34:40.156Z,445.00
2023-01-23T14:35:40.064Z,452.00
2023-01-23T14:36:40.054Z,481.00
2023-01-23T14:37:40.041Z,479.00
2023-01-23T14:38:40.033Z,460.00
2023-01-23T14:39:44.029Z,466.00
2023-01-23T14:40:49.739Z,476.00
2023-01-23T14:41:41.580Z,474.00
2023-01-23T14:42:39.940Z,477.00
2023-01-23T14:43:39.945Z,468.00
2023-01-23T14:44:39.905Z,496.00
2023-01-23T14:45:39.942Z,479.00
2023-01-23T14:46:39.985Z,485.00
2023-01-23T14:47:42.227Z,492.00
2023-01-23T14:48:39.935Z,483.00
2023-01-23T14:49:39.905Z,484.00
2023-01-23T14:50:39.889Z,481.00
2023-01-23T14:51:39.889Z,467.00
2023-01-23T14:52:39.945Z,467.00
2023-01-23T14:53:39.828Z,464.00
2023-01-23T14:54:41.986Z,451.00
2023-01-23T14:55:39.784Z,452.00
2023-01-23T14:56:39.819Z,469.00
2023-01-23T14:57:39.761Z,464.00
2023-01-23T14:58:39.738Z,460.00
2023-01-23T14:59:39.737Z,453.00
2023-01-23T15:00:39.752Z,444.00
2023-01-23T15:01:39.712Z,436.00
2023-01-23T15:02:39.822Z,450.00
2023-01-23T15:03:39.640Z,439.00
2023-01-23T15:04:39.629Z,444.00
2023-01-23T15:05:39.614Z,454.00
2023-01-23T15:06:39.609Z,450.00
2023-01-23T15:07:39.586Z,439.00
2023-01-23T15:08:39.566Z,445.00
2023-01-23T15:09:39.544Z,438.00
2023-01-23T15:10:39.546Z,428.00
2023-01-23T15:11:39.525Z,418.00
2023-01-23T15:12:39.539Z,402.00
2023-01-23T15:13:39.517Z,410.00
2023-01-23T15:14:39.492Z,450.00
2023-01-23T15:15:39.516Z,450.00
2023-01-23T15:16:39.527Z,453.00
2023-01-23T15:17:39.456Z,510.00
2023-01-23T15:18:39.525Z,593.00
2023-01-23T15:19:39.435Z,581.00
2023-01-23T15:20:39.418Z,592.00
2023-01-23T15:21:39.393Z,593.00
2023-01-23T15:22:39.372Z,580.00
2023-01-23T15:23:39.352Z,572.00
2023-01-23T15:24:39.337Z,572.00
2023-01-23T15:25:39.305Z,573.00
2023-01-23T15:26:39.395Z,571.00
2023-01-23T15:27:39.273Z,572.00
2023-01-23T15:28:39.258Z,573.00
2023-01-23T15:29:39.212Z,572.00
2023-01-23T15:30:39.270Z,574.00
2023-01-23T15:31:39.412Z,573.00
2023-01-23T15:32:39.152Z,575.00
2023-01-23T15:33:39.115Z,575.00
2023-01-23T15:34:39.174Z,575.00
2023-01-23T15:35:39.078Z,574.00
2023-01-23T15:36:39.043Z,573.00
2023-01-23T15:37:39.016Z,572.00
2023-01-23T15:38:38.989Z,571.00
2023-01-23T15:39:38.964Z,568.00
2023-01-23T15:40:38.949Z,568.00
2023-01-23T15:41:38.917Z,566.00
2023-01-23T16:03:38.357Z,518.00
2023-01-23T16:16:37.989Z,516.00
2023-01-23T16:17:37.829Z,517.00
2023-01-23T16:18:37.800Z,516.00
2023-01-23T16:19:37.787Z,516.00
2023-01-23T16:20:37.734Z,516.00
2023-01-23T16:21:37.707Z,515.00
2023-01-23T16:22:37.760Z,518.00
2023-01-23T16:23:47.322Z,518.00
2023-01-23T16:25:44.023Z,515.00
2023-01-23T16:27:37.530Z,516.00
2023-01-23T16:28:37.497Z,517.00
2023-01-23T16:29:37.456Z,518.00
2023-01-23T16:30:37.467Z,519.00
2023-01-23T16:31:37.588Z,518.00
2023-01-23T16:32:37.488Z,516.00
2023-01-23T16:33:37.316Z,518.00
2023-01-23T16:34:37.328Z,519.00
2023-01-23T16:35:37.251Z,518.00
2023-01-23T16:36:37.208Z,519.00
2023-01-23T16:37:37.205Z,517.00
2023-01-23T16:38:37.229Z,516.00
2023-01-23T16:39:37.115Z,511.00
2023-01-23T16:40:37.106Z,513.00
2023-01-23T16:41:37.037Z,516.00
2023-01-23T16:42:37.006Z,516.00
2023-01-23T16:43:36.999Z,516.00
2023-01-23T16:44:36.951Z,518.00
2023-01-23T16:45:36.904Z,520.00
2023-01-23T16:46:36.918Z,520.00
2023-01-23T16:47:36.844Z,522.00
2023-01-23T16:48:36.817Z,522.00
2023-01-23T16:49:50.952Z,522.00
2023-01-23T16:50:37.734Z,522.00
2023-01-23T16:51:36.710Z,522.00
2023-01-23T16:52:36.664Z,521.00
2023-01-23T16:53:36.632Z,523.00
2023-01-23T16:54:36.711Z,523.00
2023-01-23T16:55:36.584Z,521.00
2023-01-23T16:56:36.567Z,523.00
2023-01-23T16:57:36.521Z,523.00
2023-01-23T16:58:36.485Z,523.00
2023-01-23T16:59:36.449Z,520.00
2023-01-23T17:00:36.485Z,519.00
2023-01-23T17:01:36.384Z,519.00
2023-01-23T17:02:36.368Z,522.00
2023-01-23T17:03:36.324Z,520.00
2023-01-23T17:04:36.287Z,521.00
2023-01-23T17:05:36.257Z,521.00
2023-01-23T17:06:36.214Z,521.00
2023-01-23T17:07:36.208Z,526.00
2023-01-23T17:08:36.164Z,527.00
2023-01-23T17:09:36.126Z,528.00
2023-01-23T17:10:45.800Z,529.00
2023-01-23T17:11:37.083Z,529.00
2023-01-23T17:12:36.033Z,529.00
2023-01-23T17:13:36.023Z,530.00
2023-01-23T17:14:35.964Z,533.00
2023-01-23T17:15:35.935Z,533.00
2023-01-23T17:16:35.901Z,534.00
2023-01-23T17:17:35.869Z,536.00
2023-01-23T17:18:35.844Z,537.00
2023-01-23T17:19:36.492Z,538.00
2023-01-23T17:20:35.769Z,537.00
2023-01-23T17:21:35.727Z,536.00
2023-01-23T17:22:35.679Z,537.00
2023-01-23T17:23:35.647Z,537.00
2023-01-23T17:24:35.615Z,537.00
2023-01-23T17:25:37.782Z,536.00
2023-01-23T17:26:36.553Z,535.00
2023-01-23T17:27:44.490Z,534.00
2023-01-23T17:28:36.468Z,533.00
2023-01-23T17:29:35.431Z,532.00
2023-01-23T17:30:35.427Z,532.00
2023-01-23T17:31:35.475Z,532.00
2023-01-23T17:32:35.413Z,532.00
2023-01-23T17:33:35.307Z,531.00
2023-01-23T17:34:41.549Z,532.00
2023-01-23T17:36:35.212Z,533.00
2023-01-23T17:37:35.162Z,534.00
2023-01-23T17:38:35.137Z,531.00
2023-01-23T17:39:35.103Z,529.00
2023-01-23T17:40:35.061Z,531.00
2023-01-23T17:41:35.021Z,532.00
2023-01-23T17:42:34.995Z,533.00
2023-01-23T17:43:34.961Z,532.00
2023-01-23T17:44:34.925Z,531.00
2023-01-23T18:39:32.968Z,538.00
2023-01-23T18:40:32.932Z,536.00
2023-01-23T18:41:32.912Z,537.00
2023-01-23T18:42:32.875Z,541.00
2023-01-23T18:43:32.843Z,539.00
2023-01-23T18:44:32.800Z,539.00
2023-01-23T18:45:33.248Z,541.00
2023-01-23T18:46:32.811Z,539.00
2023-01-23T18:47:32.687Z,539.00
2023-01-23T18:48:32.647Z,537.00
2023-01-23T18:49:33.245Z,539.00
2023-01-23T18:50:32.569Z,538.00
2023-01-23T18:51:32.570Z,537.00
2023-01-23T18:52:32.504Z,534.00
2023-01-23T18:53:32.476Z,533.00
2023-01-23T18:54:32.437Z,531.00
2023-01-23T18:55:32.397Z,533.00
2023-01-23T18:56:32.401Z,536.00
2023-01-23T18:57:32.330Z,534.00
2023-01-23T18:58:32.284Z,534.00
2023-01-23T18:59:32.251Z,532.00
2023-01-23T19:00:32.221Z,531.00
2023-01-23T19:01:32.187Z,533.00
2023-01-23T19:02:32.224Z,528.00
2023-01-23T19:03:32.092Z,529.00
2023-01-23T19:04:32.992Z,528.00
2023-01-23T19:05:32.042Z,529.00
2023-01-23T19:06:33.265Z,527.00
2023-01-23T19:07:31.972Z,527.00
2023-01-23T19:08:31.900Z,528.00
2023-01-23T19:09:31.863Z,531.00
2023-01-23T19:10:40.135Z,532.00
2023-01-23T19:11:32.823Z,529.00
2023-01-23T19:12:31.768Z,531.00
2023-01-23T19:13:31.704Z,532.00
2023-01-23T19:14:31.672Z,533.00
2023-01-23T19:15:31.637Z,536.00
2023-01-23T19:16:31.614Z,537.00
2023-01-23T19:17:31.578Z,535.00
2023-01-23T19:18:40.175Z,535.00
2023-01-23T19:19:32.508Z,534.00
2023-01-23T19:20:31.447Z,536.00
2023-01-23T19:21:31.415Z,535.00
2023-01-23T19:22:31.377Z,534.00
2023-01-23T19:23:31.347Z,535.00
2023-01-23T19:24:31.305Z,533.00
2023-01-23T19:25:31.273Z,532.00
2023-01-23T19:26:31.232Z,531.00
2023-01-23T19:27:31.213Z,534.00
2023-01-23T19:28:31.163Z,532.00
2023-01-23T19:29:31.128Z,531.00
2023-01-23T19:30:31.092Z,532.00
2023-01-23T19:31:31.075Z,534.00
2023-01-23T19:32:31.092Z,534.00
2023-01-23T19:33:31.003Z,537.00
2023-01-23T19:34:31.015Z,536.00
2023-01-23T19:35:31.234Z,537.00
2023-01-23T19:36:30.855Z,540.00
2023-01-23T19:37:30.838Z,540.00
2023-01-23T19:38:30.792Z,539.00
2023-01-23T19:39:30.836Z,538.00
2023-01-23T19:40:31.516Z,538.00
2023-01-23T19:41:30.694Z,536.00
2023-01-23T19:42:38.739Z,534.00
2023-01-23T19:43:31.600Z,531.00
2023-01-23T19:44:30.577Z,532.00
2023-01-23T19:45:30.529Z,532.00
2023-01-23T19:46:30.530Z,533.00
2023-01-23T19:47:30.513Z,532.00
2023-01-23T19:48:30.457Z,534.00
2023-01-23T19:49:30.382Z,533.00
2023-01-23T19:50:30.444Z,532.00
2023-01-23T19:51:30.315Z,532.00
2023-01-23T19:52:30.274Z,532.00
2023-01-23T19:53:30.230Z,533.00
2023-01-23T19:54:30.201Z,532.00
2023-01-23T19:55:30.175Z,531.00
2023-01-23T19:56:30.131Z,530.00
2023-01-23T19:57:30.102Z,528.00
2023-01-23T19:58:32.172Z,530.00
2023-01-23T19:59:30.049Z,529.00
2023-01-23T20:00:30.007Z,527.00
2023-01-23T20:01:29.975Z,526.00
2023-01-23T20:02:30.095Z,526.00
2023-01-23T20:03:29.912Z,525.00
2023-01-23T20:04:29.877Z,526.00
2023-01-23T20:05:29.845Z,526.00
2023-01-23T20:06:29.896Z,528.00
2023-01-23T20:07:29.766Z,530.00
2023-01-23T20:08:29.733Z,532.00
2023-01-23T20:09:29.700Z,529.00
2023-01-23T20:10:29.666Z,525.00
2023-01-23T20:11:29.670Z,527.00
2023-01-23T20:12:29.591Z,526.00
2023-01-23T20:13:29.575Z,526.00
2023-01-23T20:14:29.531Z,527.00
2023-01-23T20:15:29.496Z,529.00
2023-01-23T20:16:29.476Z,528.00
2023-01-23T20:17:29.416Z,523.00
2023-01-23T20:18:29.379Z,517.00
2023-01-23T20:19:29.342Z,515.00
2023-01-23T20:20:29.322Z,516.00
2023-01-23T20:21:29.272Z,519.00
2023-01-23T20:22:29.317Z,521.00
2023-01-23T20:23:29.195Z,522.00
2023-01-23T20:24:29.153Z,522.00
2023-01-23T20:25:29.113Z,522.00
2023-01-23T20:26:29.079Z,522.00
2023-01-23T20:27:29.047Z,523.00
2023-01-23T20:28:29.009Z,522.00
2023-01-23T20:29:28.962Z,523.00
2023-01-23T20:30:29.293Z,522.00
2023-01-23T20:34:29.522Z,523.00
2023-01-23T23:05:23.621Z,506.00
2023-01-23T23:06:23.203Z,507.00
2023-01-23T23:07:23.167Z,508.00
2023-01-23T23:08:23.138Z,507.00
2023-01-23T23:09:23.095Z,509.00
2023-01-23T23:10:23.072Z,509.00
2023-01-23T23:11:23.030Z,511.00
2023-01-23T23:12:23.008Z,510.00
2023-01-23T23:13:22.982Z,509.00
2023-01-23T23:14:22.940Z,507.00
2023-01-23T23:15:23.209Z,506.00
2023-01-23T23:16:22.876Z,503.00
2023-01-23T23:17:22.870Z,501.00
2023-01-23T23:19:22.776Z,497.00
2023-01-23T23:20:22.747Z,499.00
2023-01-23T23:21:22.737Z,502.00
2023-01-23T23:22:22.699Z,501.00
2023-01-23T23:23:22.656Z,502.00
2023-01-23T23:24:22.737Z,503.00
2023-01-23T23:25:22.835Z,503.00
